sensor_id;sensor_type;location;lat;lon;timestamp;temperature;humidity
17827;DHT22;9038;48.208;16.308;2023-01-29T00:01:18;2.70;72.70
17827;DHT22;9038;48.208;16.308;2023-01-29T00:03:20;2.70;72.80
17827;DHT22;9038;48.208;16.308;2023-01-29T00:05:25;2.60;72.60
17827;DHT22;9038;48.208;16.308;2023-01-29T00:07:27;2.60;72.50
17827;DHT22;9038;48.208;16.308;2023-01-29T00:09:33;2.60;72.00
17827;DHT22;9038;48.208;16.308;2023-01-29T00:11:40;2.50;72.50
17827;DHT22;9038;48.208;16.308;2023-01-29T00:13:45;2.50;72.30
17827;DHT22;9038;48.208;16.308;2023-01-29T00:15:53;2.40;72.30
17827;DHT22;9038;48.208;16.308;2023-01-29T00:17:55;2.40;72.60
17827;DHT22;9038;48.208;16.308;2023-01-29T00:19:57;2.40;72.50
17827;DHT22;9038;48.208;16.308;2023-01-29T00:21:59;2.40;72.90
17827;DHT22;9038;48.208;16.308;2023-01-29T00:24:01;2.40;73.00
17827;DHT22;9038;48.208;16.308;2023-01-29T00:26:03;2.40;73.20
17827;DHT22;9038;48.208;16.308;2023-01-29T00:28:07;2.40;72.80
17827;DHT22;9038;48.208;16.308;2023-01-29T00:30:10;2.40;72.70
17827;DHT22;9038;48.208;16.308;2023-01-29T00:32:12;2.40;72.40
17827;DHT22;9038;48.208;16.308;2023-01-29T00:34:14;2.40;72.70
17827;DHT22;9038;48.208;16.308;2023-01-29T00:36:18;2.40;73.00
17827;DHT22;9038;48.208;16.308;2023-01-29T00:38:20;2.40;72.40
17827;DHT22;9038;48.208;16.308;2023-01-29T00:40:22;2.40;72.40
17827;DHT22;9038;48.208;16.308;2023-01-29T00:42:24;2.30;72.40
17827;DHT22;9038;48.208;16.308;2023-01-29T00:44:45;2.30;72.40
17827;DHT22;9038;48.208;16.308;2023-01-29T00:46:58;2.30;72.40
17827;DHT22;9038;48.208;16.308;2023-01-29T00:49:00;2.30;72.30
17827;DHT22;9038;48.208;16.308;2023-01-29T00:51:03;2.30;72.70
17827;DHT22;9038;48.208;16.308;2023-01-29T00:53:05;2.40;72.60
17827;DHT22;9038;48.208;16.308;2023-01-29T00:55:08;2.40;72.40
17827;DHT22;9038;48.208;16.308;2023-01-29T00:57:10;2.30;72.30
17827;DHT22;9038;48.208;16.308;2023-01-29T00:59:12;2.40;72.30
17827;DHT22;9038;48.208;16.308;2023-01-29T01:01:16;2.40;72.40
17827;DHT22;9038;48.208;16.308;2023-01-29T01:03:38;2.30;72.30
17827;DHT22;9038;48.208;16.308;2023-01-29T01:05:42;2.20;72.60
17827;DHT22;9038;48.208;16.308;2023-01-29T01:07:44;2.20;72.60
17827;DHT22;9038;48.208;16.308;2023-01-29T01:09:46;2.20;73.20
17827;DHT22;9038;48.208;16.308;2023-01-29T01:12:06;2.30;73.40
17827;DHT22;9038;48.208;16.308;2023-01-29T01:14:08;2.30;72.70
17827;DHT22;9038;48.208;16.308;2023-01-29T01:16:11;2.30;72.30
17827;DHT22;9038;48.208;16.308;2023-01-29T01:18:15;2.30;72.20
17827;DHT22;9038;48.208;16.308;2023-01-29T01:20:20;2.30;71.60
17827;DHT22;9038;48.208;16.308;2023-01-29T01:22:22;2.20;72.00
17827;DHT22;9038;48.208;16.308;2023-01-29T01:24:24;2.20;72.80
17827;DHT22;9038;48.208;16.308;2023-01-29T01:26:26;2.20;72.10
17827;DHT22;9038;48.208;16.308;2023-01-29T01:28:28;2.20;72.20
17827;DHT22;9038;48.208;16.308;2023-01-29T01:30:30;2.20;72.10
17827;DHT22;9038;48.208;16.308;2023-01-29T01:32:32;2.30;71.50
17827;DHT22;9038;48.208;16.308;2023-01-29T01:34:35;2.30;71.40
17827;DHT22;9038;48.208;16.308;2023-01-29T01:36:37;2.30;71.20
17827;DHT22;9038;48.208;16.308;2023-01-29T01:38:39;2.30;71.10
17827;DHT22;9038;48.208;16.308;2023-01-29T01:40:45;2.30;71.30
17827;DHT22;9038;48.208;16.308;2023-01-29T01:42:47;2.30;71.20
17827;DHT22;9038;48.208;16.308;2023-01-29T01:44:55;2.20;71.10
17827;DHT22;9038;48.208;16.308;2023-01-29T01:47:00;2.30;70.80
17827;DHT22;9038;48.208;16.308;2023-01-29T01:49:06;2.20;70.80
17827;DHT22;9038;48.208;16.308;2023-01-29T01:51:10;2.20;70.30
17827;DHT22;9038;48.208;16.308;2023-01-29T01:53:15;2.20;70.90
17827;DHT22;9038;48.208;16.308;2023-01-29T01:55:22;2.20;71.00
17827;DHT22;9038;48.208;16.308;2023-01-29T01:57:26;2.30;71.40
17827;DHT22;9038;48.208;16.308;2023-01-29T01:59:32;2.30;70.30
17827;DHT22;9038;48.208;16.308;2023-01-29T02:01:34;2.20;70.20
17827;DHT22;9038;48.208;16.308;2023-01-29T02:03:41;2.10;70.10
17827;DHT22;9038;48.208;16.308;2023-01-29T02:06:02;2.20;70.50
17827;DHT22;9038;48.208;16.308;2023-01-29T02:08:27;2.10;70.10
17827;DHT22;9038;48.208;16.308;2023-01-29T02:10:48;2.10;69.90
17827;DHT22;9038;48.208;16.308;2023-01-29T02:12:50;2.10;70.10
17827;DHT22;9038;48.208;16.308;2023-01-29T02:14:52;2.00;69.60
17827;DHT22;9038;48.208;16.308;2023-01-29T02:16:54;2.00;70.00
17827;DHT22;9038;48.208;16.308;2023-01-29T02:18:56;2.00;70.00
17827;DHT22;9038;48.208;16.308;2023-01-29T02:21:09;2.00;70.00
17827;DHT22;9038;48.208;16.308;2023-01-29T02:23:34;2.10;70.10
17827;DHT22;9038;48.208;16.308;2023-01-29T02:25:58;2.10;70.10
17827;DHT22;9038;48.208;16.308;2023-01-29T02:28:24;2.10;70.00
17827;DHT22;9038;48.208;16.308;2023-01-29T02:30:35;2.10;69.50
17827;DHT22;9038;48.208;16.308;2023-01-29T02:32:41;2.10;69.50
17827;DHT22;9038;48.208;16.308;2023-01-29T02:35:03;2.10;69.40
17827;DHT22;9038;48.208;16.308;2023-01-29T02:37:28;2.10;69.30
17827;DHT22;9038;48.208;16.308;2023-01-29T02:39:38;2.10;68.90
17827;DHT22;9038;48.208;16.308;2023-01-29T02:41:47;2.00;68.80
17827;DHT22;9038;48.208;16.308;2023-01-29T02:43:55;2.00;69.00
17827;DHT22;9038;48.208;16.308;2023-01-29T02:46:05;2.00;69.00
17827;DHT22;9038;48.208;16.308;2023-01-29T02:48:17;2.00;69.00
17827;DHT22;9038;48.208;16.308;2023-01-29T02:50:22;2.00;69.00
17827;DHT22;9038;48.208;16.308;2023-01-29T02:52:29;2.00;69.00
17827;DHT22;9038;48.208;16.308;2023-01-29T02:54:40;2.00;69.10
17827;DHT22;9038;48.208;16.308;2023-01-29T02:56:49;2.00;68.70
17827;DHT22;9038;48.208;16.308;2023-01-29T02:58:58;2.00;68.70
17827;DHT22;9038;48.208;16.308;2023-01-29T03:01:05;2.00;69.00
17827;DHT22;9038;48.208;16.308;2023-01-29T03:03:13;2.00;68.70
17827;DHT22;9038;48.208;16.308;2023-01-29T03:05:20;2.00;68.60
17827;DHT22;9038;48.208;16.308;2023-01-29T03:07:27;2.00;68.00
17827;DHT22;9038;48.208;16.308;2023-01-29T03:09:48;2.00;68.40
17827;DHT22;9038;48.208;16.308;2023-01-29T03:11:54;2.00;68.50
17827;DHT22;9038;48.208;16.308;2023-01-29T03:14:04;2.00;68.80
17827;DHT22;9038;48.208;16.308;2023-01-29T03:16:13;2.00;67.60
17827;DHT22;9038;48.208;16.308;2023-01-29T03:18:21;2.00;67.60
17827;DHT22;9038;48.208;16.308;2023-01-29T03:20:33;2.00;67.30
17827;DHT22;9038;48.208;16.308;2023-01-29T03:22:36;2.00;67.20
17827;DHT22;9038;48.208;16.308;2023-01-29T03:24:43;2.00;67.50
17827;DHT22;9038;48.208;16.308;2023-01-29T03:27:08;2.10;67.50
17827;DHT22;9038;48.208;16.308;2023-01-29T03:29:30;2.10;67.10
17827;DHT22;9038;48.208;16.308;2023-01-29T03:31:52;2.00;66.60
17827;DHT22;9038;48.208;16.308;2023-01-29T03:34:08;2.00;66.90
17827;DHT22;9038;48.208;16.308;2023-01-29T03:36:21;2.00;66.10
17827;DHT22;9038;48.208;16.308;2023-01-29T03:38:25;2.00;66.00
17827;DHT22;9038;48.208;16.308;2023-01-29T03:40:35;2.00;66.00
17827;DHT22;9038;48.208;16.308;2023-01-29T03:42:54;2.00;67.10
17827;DHT22;9038;48.208;16.308;2023-01-29T03:45:05;2.10;66.90
17827;DHT22;9038;48.208;16.308;2023-01-29T03:47:15;2.10;66.60
17827;DHT22;9038;48.208;16.308;2023-01-29T03:49:23;2.10;66.10
17827;DHT22;9038;48.208;16.308;2023-01-29T03:51:34;2.10;65.70
17827;DHT22;9038;48.208;16.308;2023-01-29T03:53:42;2.00;65.20
17827;DHT22;9038;48.208;16.308;2023-01-29T03:55:54;2.00;65.60
17827;DHT22;9038;48.208;16.308;2023-01-29T03:58:06;2.00;65.60
17827;DHT22;9038;48.208;16.308;2023-01-29T04:00:14;1.90;65.80
17827;DHT22;9038;48.208;16.308;2023-01-29T04:02:20;1.90;65.90
17827;DHT22;9038;48.208;16.308;2023-01-29T04:04:29;1.90;66.50
17827;DHT22;9038;48.208;16.308;2023-01-29T04:06:34;1.90;65.90
17827;DHT22;9038;48.208;16.308;2023-01-29T04:08:43;1.90;65.90
17827;DHT22;9038;48.208;16.308;2023-01-29T04:10:50;1.90;65.90
17827;DHT22;9038;48.208;16.308;2023-01-29T04:12:57;1.80;65.80
17827;DHT22;9038;48.208;16.308;2023-01-29T04:15:00;1.70;66.40
17827;DHT22;9038;48.208;16.308;2023-01-29T04:17:08;1.70;65.70
17827;DHT22;9038;48.208;16.308;2023-01-29T04:19:13;1.60;66.40
17827;DHT22;9038;48.208;16.308;2023-01-29T04:21:16;1.60;66.40
17827;DHT22;9038;48.208;16.308;2023-01-29T04:23:21;1.50;65.60
17827;DHT22;9038;48.208;16.308;2023-01-29T04:25:26;1.50;66.70
17827;DHT22;9038;48.208;16.308;2023-01-29T04:27:39;1.40;67.20
17827;DHT22;9038;48.208;16.308;2023-01-29T04:29:53;1.50;67.30
17827;DHT22;9038;48.208;16.308;2023-01-29T04:32:05;1.50;67.10
17827;DHT22;9038;48.208;16.308;2023-01-29T04:34:18;1.60;67.00
17827;DHT22;9038;48.208;16.308;2023-01-29T04:36:31;1.60;66.50
17827;DHT22;9038;48.208;16.308;2023-01-29T04:38:46;1.50;66.20
17827;DHT22;9038;48.208;16.308;2023-01-29T04:40:52;1.50;66.70
17827;DHT22;9038;48.208;16.308;2023-01-29T04:43:02;1.50;65.60
17827;DHT22;9038;48.208;16.308;2023-01-29T04:45:15;1.50;65.60
17827;DHT22;9038;48.208;16.308;2023-01-29T04:47:24;1.50;66.30
17827;DHT22;9038;48.208;16.308;2023-01-29T04:49:34;1.50;65.60
17827;DHT22;9038;48.208;16.308;2023-01-29T04:51:48;1.50;65.70
17827;DHT22;9038;48.208;16.308;2023-01-29T04:53:57;1.50;66.30
17827;DHT22;9038;48.208;16.308;2023-01-29T04:56:07;1.50;66.50
17827;DHT22;9038;48.208;16.308;2023-01-29T04:58:14;1.40;66.30
17827;DHT22;9038;48.208;16.308;2023-01-29T05:00:21;1.30;65.40
17827;DHT22;9038;48.208;16.308;2023-01-29T05:02:27;1.30;65.40
17827;DHT22;9038;48.208;16.308;2023-01-29T05:04:31;1.30;65.10
17827;DHT22;9038;48.208;16.308;2023-01-29T05:06:35;1.20;65.30
17827;DHT22;9038;48.208;16.308;2023-01-29T05:08:38;1.30;65.50
17827;DHT22;9038;48.208;16.308;2023-01-29T05:10:41;1.20;65.30
17827;DHT22;9038;48.208;16.308;2023-01-29T05:12:47;1.10;64.60
17827;DHT22;9038;48.208;16.308;2023-01-29T05:14:51;1.10;64.00
17827;DHT22;9038;48.208;16.308;2023-01-29T05:16:55;1.00;63.40
17827;DHT22;9038;48.208;16.308;2023-01-29T05:18:59;1.00;63.70
17827;DHT22;9038;48.208;16.308;2023-01-29T05:21:06;1.10;64.00
17827;DHT22;9038;48.208;16.308;2023-01-29T05:23:09;1.00;63.90
17827;DHT22;9038;48.208;16.308;2023-01-29T05:25:21;1.10;64.10
17827;DHT22;9038;48.208;16.308;2023-01-29T05:27:28;1.10;63.50
17827;DHT22;9038;48.208;16.308;2023-01-29T05:29:49;1.10;63.40
17827;DHT22;9038;48.208;16.308;2023-01-29T05:31:51;1.10;62.80
17827;DHT22;9038;48.208;16.308;2023-01-29T05:33:53;1.20;63.10
17827;DHT22;9038;48.208;16.308;2023-01-29T05:35:58;1.20;63.10
17827;DHT22;9038;48.208;16.308;2023-01-29T05:38:02;1.20;62.30
17827;DHT22;9038;48.208;16.308;2023-01-29T05:40:05;1.10;62.20
17827;DHT22;9038;48.208;16.308;2023-01-29T05:42:09;1.10;62.70
17827;DHT22;9038;48.208;16.308;2023-01-29T05:44:11;1.10;61.90
17827;DHT22;9038;48.208;16.308;2023-01-29T05:46:13;1.00;61.80
17827;DHT22;9038;48.208;16.308;2023-01-29T05:48:15;1.00;62.10
17827;DHT22;9038;48.208;16.308;2023-01-29T05:50:17;1.00;62.10
17827;DHT22;9038;48.208;16.308;2023-01-29T05:52:21;1.00;61.70
17827;DHT22;9038;48.208;16.308;2023-01-29T05:54:24;1.00;61.50
17827;DHT22;9038;48.208;16.308;2023-01-29T05:56:26;0.90;61.40
17827;DHT22;9038;48.208;16.308;2023-01-29T05:58:30;0.90;62.00
17827;DHT22;9038;48.208;16.308;2023-01-29T06:00:37;0.90;61.70
17827;DHT22;9038;48.208;16.308;2023-01-29T06:02:39;0.80;62.00
17827;DHT22;9038;48.208;16.308;2023-01-29T06:04:41;0.80;62.30
17827;DHT22;9038;48.208;16.308;2023-01-29T06:06:43;0.80;61.90
17827;DHT22;9038;48.208;16.308;2023-01-29T06:08:47;0.80;62.10
17827;DHT22;9038;48.208;16.308;2023-01-29T06:10:49;0.80;61.90
17827;DHT22;9038;48.208;16.308;2023-01-29T06:12:51;0.80;61.90
17827;DHT22;9038;48.208;16.308;2023-01-29T06:14:52;0.80;61.90
17827;DHT22;9038;48.208;16.308;2023-01-29T06:16:54;0.80;62.30
17827;DHT22;9038;48.208;16.308;2023-01-29T06:18:56;0.80;62.50
17827;DHT22;9038;48.208;16.308;2023-01-29T06:21:00;0.90;62.30
17827;DHT22;9038;48.208;16.308;2023-01-29T06:23:03;0.90;62.20
17827;DHT22;9038;48.208;16.308;2023-01-29T06:25:08;0.90;61.60
17827;DHT22;9038;48.208;16.308;2023-01-29T06:27:10;0.80;61.40
17827;DHT22;9038;48.208;16.308;2023-01-29T06:29:12;0.80;61.30
17827;DHT22;9038;48.208;16.308;2023-01-29T06:31:14;0.70;61.80
17827;DHT22;9038;48.208;16.308;2023-01-29T06:33:16;0.70;61.80
17827;DHT22;9038;48.208;16.308;2023-01-29T06:35:17;0.70;61.90
17827;DHT22;9038;48.208;16.308;2023-01-29T06:37:19;0.80;61.90
17827;DHT22;9038;48.208;16.308;2023-01-29T06:39:21;0.80;62.10
17827;DHT22;9038;48.208;16.308;2023-01-29T06:41:25;0.80;61.80
17827;DHT22;9038;48.208;16.308;2023-01-29T06:43:27;0.80;61.90
17827;DHT22;9038;48.208;16.308;2023-01-29T06:45:29;0.70;61.00
17827;DHT22;9038;48.208;16.308;2023-01-29T06:47:31;0.70;61.80
17827;DHT22;9038;48.208;16.308;2023-01-29T06:49:33;0.70;61.80
17827;DHT22;9038;48.208;16.308;2023-01-29T06:51:35;0.70;61.90
17827;DHT22;9038;48.208;16.308;2023-01-29T06:53:38;0.80;62.00
17827;DHT22;9038;48.208;16.308;2023-01-29T06:55:40;0.80;62.00
17827;DHT22;9038;48.208;16.308;2023-01-29T06:57:43;0.80;61.40
17827;DHT22;9038;48.208;16.308;2023-01-29T06:59:45;0.80;60.90
17827;DHT22;9038;48.208;16.308;2023-01-29T07:01:47;0.80;61.30
17827;DHT22;9038;48.208;16.308;2023-01-29T07:03:49;0.80;61.40
17827;DHT22;9038;48.208;16.308;2023-01-29T07:05:51;0.80;61.40
17827;DHT22;9038;48.208;16.308;2023-01-29T07:07:54;0.70;60.90
17827;DHT22;9038;48.208;16.308;2023-01-29T07:09:56;0.70;61.10
17827;DHT22;9038;48.208;16.308;2023-01-29T07:11:58;0.70;61.60
17827;DHT22;9038;48.208;16.308;2023-01-29T07:14:02;0.70;61.80
17827;DHT22;9038;48.208;16.308;2023-01-29T07:16:05;0.80;62.10
17827;DHT22;9038;48.208;16.308;2023-01-29T07:18:08;0.80;60.90
17827;DHT22;9038;48.208;16.308;2023-01-29T07:20:13;0.70;60.80
17827;DHT22;9038;48.208;16.308;2023-01-29T07:22:15;0.70;60.80
17827;DHT22;9038;48.208;16.308;2023-01-29T07:24:17;0.80;60.90
17827;DHT22;9038;48.208;16.308;2023-01-29T07:26:19;0.80;61.20
17827;DHT22;9038;48.208;16.308;2023-01-29T07:28:21;0.90;61.40
17827;DHT22;9038;48.208;16.308;2023-01-29T07:30:27;0.90;60.70
17827;DHT22;9038;48.208;16.308;2023-01-29T07:32:29;1.10;61.20
17827;DHT22;9038;48.208;16.308;2023-01-29T07:34:31;1.20;60.50
17827;DHT22;9038;48.208;16.308;2023-01-29T07:36:33;1.30;59.90
17827;DHT22;9038;48.208;16.308;2023-01-29T07:38:36;1.40;60.30
17827;DHT22;9038;48.208;16.308;2023-01-29T07:40:42;1.40;59.30
17827;DHT22;9038;48.208;16.308;2023-01-29T07:42:44;1.50;59.00
17827;DHT22;9038;48.208;16.308;2023-01-29T07:44:46;1.60;59.00
17827;DHT22;9038;48.208;16.308;2023-01-29T07:46:49;1.60;58.90
17827;DHT22;9038;48.208;16.308;2023-01-29T07:48:51;1.70;58.80
17827;DHT22;9038;48.208;16.308;2023-01-29T07:50:54;1.70;58.80
17827;DHT22;9038;48.208;16.308;2023-01-29T07:52:56;1.70;58.50
17827;DHT22;9038;48.208;16.308;2023-01-29T07:54:59;1.90;58.70
17827;DHT22;9038;48.208;16.308;2023-01-29T07:57:01;1.90;57.80
17827;DHT22;9038;48.208;16.308;2023-01-29T07:59:03;2.00;57.90
17827;DHT22;9038;48.208;16.308;2023-01-29T08:01:05;2.00;58.00
17827;DHT22;9038;48.208;16.308;2023-01-29T08:03:11;2.00;57.50
17827;DHT22;9038;48.208;16.308;2023-01-29T08:05:17;2.00;57.80
17827;DHT22;9038;48.208;16.308;2023-01-29T08:07:28;2.00;57.10
17827;DHT22;9038;48.208;16.308;2023-01-29T08:09:32;2.00;57.30
17827;DHT22;9038;48.208;16.308;2023-01-29T08:11:37;2.00;57.30
17827;DHT22;9038;48.208;16.308;2023-01-29T08:13:39;2.00;57.00
17827;DHT22;9038;48.208;16.308;2023-01-29T08:15:42;2.10;57.20
17827;DHT22;9038;48.208;16.308;2023-01-29T08:17:45;2.00;56.80
17827;DHT22;9038;48.208;16.308;2023-01-29T08:19:49;2.00;56.80
17827;DHT22;9038;48.208;16.308;2023-01-29T08:21:51;2.00;57.30
17827;DHT22;9038;48.208;16.308;2023-01-29T08:23:52;2.00;56.60
17827;DHT22;9038;48.208;16.308;2023-01-29T08:25:55;1.90;56.60
17827;DHT22;9038;48.208;16.308;2023-01-29T08:27:57;1.90;56.90
17827;DHT22;9038;48.208;16.308;2023-01-29T08:30:00;1.90;56.80
17827;DHT22;9038;48.208;16.308;2023-01-29T08:32:02;1.90;57.50
17827;DHT22;9038;48.208;16.308;2023-01-29T08:34:04;1.90;57.80
17827;DHT22;9038;48.208;16.308;2023-01-29T08:36:08;2.00;56.80
17827;DHT22;9038;48.208;16.308;2023-01-29T08:38:10;2.00;56.80
17827;DHT22;9038;48.208;16.308;2023-01-29T08:40:13;2.00;57.30
17827;DHT22;9038;48.208;16.308;2023-01-29T08:42:15;2.10;56.90
17827;DHT22;9038;48.208;16.308;2023-01-29T08:44:17;2.10;56.60
17827;DHT22;9038;48.208;16.308;2023-01-29T08:46:19;2.20;56.80
17827;DHT22;9038;48.208;16.308;2023-01-29T08:48:20;2.20;56.50
17827;DHT22;9038;48.208;16.308;2023-01-29T08:50:23;2.10;56.20
17827;DHT22;9038;48.208;16.308;2023-01-29T08:52:27;1.90;56.40
17827;DHT22;9038;48.208;16.308;2023-01-29T08:54:30;2.00;56.80
17827;DHT22;9038;48.208;16.308;2023-01-29T08:56:34;2.00;56.80
17827;DHT22;9038;48.208;16.308;2023-01-29T08:58:43;2.00;57.10
17827;DHT22;9038;48.208;16.308;2023-01-29T09:00:45;2.00;56.80
17827;DHT22;9038;48.208;16.308;2023-01-29T09:02:47;2.00;56.30
17827;DHT22;9038;48.208;16.308;2023-01-29T09:04:49;2.00;56.20
17827;DHT22;9038;48.208;16.308;2023-01-29T09:06:51;2.10;56.70
17827;DHT22;9038;48.208;16.308;2023-01-29T09:08:55;2.10;56.10
17827;DHT22;9038;48.208;16.308;2023-01-29T09:10:57;2.00;56.20
17827;DHT22;9038;48.208;16.308;2023-01-29T09:13:00;2.00;55.80
17827;DHT22;9038;48.208;16.308;2023-01-29T09:15:02;2.00;56.10
17827;DHT22;9038;48.208;16.308;2023-01-29T09:17:04;2.10;55.90
17827;DHT22;9038;48.208;16.308;2023-01-29T09:19:06;2.10;55.70
17827;DHT22;9038;48.208;16.308;2023-01-29T09:21:09;2.20;55.90
17827;DHT22;9038;48.208;16.308;2023-01-29T09:23:12;2.40;56.10
17827;DHT22;9038;48.208;16.308;2023-01-29T09:25:15;2.50;55.50
17827;DHT22;9038;48.208;16.308;2023-01-29T09:27:17;2.50;55.60
17827;DHT22;9038;48.208;16.308;2023-01-29T09:29:19;2.60;55.60
17827;DHT22;9038;48.208;16.308;2023-01-29T09:31:21;2.70;55.90
17827;DHT22;9038;48.208;16.308;2023-01-29T09:33:23;2.90;55.00
17827;DHT22;9038;48.208;16.308;2023-01-29T09:35:25;3.10;54.80
17827;DHT22;9038;48.208;16.308;2023-01-29T09:37:27;3.20;53.80
17827;DHT22;9038;48.208;16.308;2023-01-29T09:39:29;3.30;53.90
17827;DHT22;9038;48.208;16.308;2023-01-29T09:41:46;3.50;54.00
17827;DHT22;9038;48.208;16.308;2023-01-29T09:43:54;3.60;53.60
17827;DHT22;9038;48.208;16.308;2023-01-29T09:45:59;3.70;52.90
17827;DHT22;9038;48.208;16.308;2023-01-29T09:48:03;3.70;52.50
17827;DHT22;9038;48.208;16.308;2023-01-29T09:50:10;3.70;53.20
17827;DHT22;9038;48.208;16.308;2023-01-29T09:52:16;3.70;52.80
17827;DHT22;9038;48.208;16.308;2023-01-29T09:54:23;3.70;53.00
17827;DHT22;9038;48.208;16.308;2023-01-29T09:56:26;3.80;53.00
17827;DHT22;9038;48.208;16.308;2023-01-29T09:58:33;3.80;52.80
17827;DHT22;9038;48.208;16.308;2023-01-29T10:00:38;3.80;52.20
17827;DHT22;9038;48.208;16.308;2023-01-29T10:02:57;3.80;52.60
17827;DHT22;9038;48.208;16.308;2023-01-29T10:05:21;4.00;53.00
17827;DHT22;9038;48.208;16.308;2023-01-29T10:10:19;4.20;52.00
17827;DHT22;9038;48.208;16.308;2023-01-29T10:12:55;4.20;52.00
17827;DHT22;9038;48.208;16.308;2023-01-29T10:15:05;4.10;51.80
17827;DHT22;9038;48.208;16.308;2023-01-29T10:17:32;4.20;52.30
17827;DHT22;9038;48.208;16.308;2023-01-29T10:19:56;4.40;52.10
17827;DHT22;9038;48.208;16.308;2023-01-29T10:22:24;4.70;51.40
17827;DHT22;9038;48.208;16.308;2023-01-29T10:24:35;4.80;50.70
17827;DHT22;9038;48.208;16.308;2023-01-29T10:26:39;4.90;50.60
17827;DHT22;9038;48.208;16.308;2023-01-29T10:28:43;4.80;50.60
17827;DHT22;9038;48.208;16.308;2023-01-29T10:30:49;4.90;50.70
17827;DHT22;9038;48.208;16.308;2023-01-29T10:32:53;5.10;50.40
17827;DHT22;9038;48.208;16.308;2023-01-29T10:34:59;5.20;50.60
17827;DHT22;9038;48.208;16.308;2023-01-29T10:37:13;5.10;49.70
17827;DHT22;9038;48.208;16.308;2023-01-29T10:39:19;5.00;49.90
17827;DHT22;9038;48.208;16.308;2023-01-29T10:41:36;5.10;50.50
17827;DHT22;9038;48.208;16.308;2023-01-29T10:43:54;5.20;49.80
17827;DHT22;9038;48.208;16.308;2023-01-29T10:46:08;5.40;49.80
17827;DHT22;9038;48.208;16.308;2023-01-29T10:48:34;5.50;48.60
17827;DHT22;9038;48.208;16.308;2023-01-29T10:50:46;5.70;49.20
17827;DHT22;9038;48.208;16.308;2023-01-29T10:52:57;5.70;48.10
17827;DHT22;9038;48.208;16.308;2023-01-29T10:55:13;5.70;48.30
17827;DHT22;9038;48.208;16.308;2023-01-29T10:57:33;5.80;48.60
17827;DHT22;9038;48.208;16.308;2023-01-29T10:59:50;5.70;48.00
17827;DHT22;9038;48.208;16.308;2023-01-29T11:01:58;5.60;49.10
17827;DHT22;9038;48.208;16.308;2023-01-29T11:04:03;5.60;49.10
17827;DHT22;9038;48.208;16.308;2023-01-29T11:06:11;5.60;49.20
17827;DHT22;9038;48.208;16.308;2023-01-29T11:08:18;5.60;49.20
17827;DHT22;9038;48.208;16.308;2023-01-29T11:10:21;5.60;50.00
17827;DHT22;9038;48.208;16.308;2023-01-29T11:12:27;5.50;49.30
17827;DHT22;9038;48.208;16.308;2023-01-29T11:14:36;5.50;49.30
17827;DHT22;9038;48.208;16.308;2023-01-29T11:16:42;5.30;49.40
17827;DHT22;9038;48.208;16.308;2023-01-29T11:18:54;5.20;49.50
17827;DHT22;9038;48.208;16.308;2023-01-29T11:21:03;4.90;49.20
17827;DHT22;9038;48.208;16.308;2023-01-29T11:23:17;4.70;49.70
17827;DHT22;9038;48.208;16.308;2023-01-29T11:25:24;4.60;50.60
17827;DHT22;9038;48.208;16.308;2023-01-29T11:27:27;4.60;50.60
17827;DHT22;9038;48.208;16.308;2023-01-29T11:29:33;4.70;50.70
17827;DHT22;9038;48.208;16.308;2023-01-29T11:31:37;4.90;50.30
17827;DHT22;9038;48.208;16.308;2023-01-29T11:33:40;4.90;50.00
17827;DHT22;9038;48.208;16.308;2023-01-29T11:35:44;4.90;50.10
17827;DHT22;9038;48.208;16.308;2023-01-29T11:37:47;5.00;50.40
17827;DHT22;9038;48.208;16.308;2023-01-29T11:39:49;5.10;50.10
17827;DHT22;9038;48.208;16.308;2023-01-29T11:41:55;5.10;50.10
17827;DHT22;9038;48.208;16.308;2023-01-29T11:43:57;5.40;49.90
17827;DHT22;9038;48.208;16.308;2023-01-29T11:46:02;5.50;49.40
17827;DHT22;9038;48.208;16.308;2023-01-29T11:48:13;5.70;49.30
17827;DHT22;9038;48.208;16.308;2023-01-29T11:50:20;5.60;48.80
17827;DHT22;9038;48.208;16.308;2023-01-29T11:52:25;5.60;49.20
17827;DHT22;9038;48.208;16.308;2023-01-29T11:54:32;5.60;49.20
17827;DHT22;9038;48.208;16.308;2023-01-29T11:56:40;5.60;49.10
17827;DHT22;9038;48.208;16.308;2023-01-29T11:58:44;5.50;49.50
17827;DHT22;9038;48.208;16.308;2023-01-29T12:00:49;5.60;49.60
17827;DHT22;9038;48.208;16.308;2023-01-29T12:02:54;5.60;49.70
17827;DHT22;9038;48.208;16.308;2023-01-29T12:05:00;5.60;49.80
17827;DHT22;9038;48.208;16.308;2023-01-29T12:07:11;5.50;49.90
17827;DHT22;9038;48.208;16.308;2023-01-29T12:09:18;5.20;49.90
17827;DHT22;9038;48.208;16.308;2023-01-29T12:11:24;5.00;50.80
17827;DHT22;9038;48.208;16.308;2023-01-29T12:13:27;4.70;52.70
17827;DHT22;9038;48.208;16.308;2023-01-29T12:15:30;4.60;52.20
17827;DHT22;9038;48.208;16.308;2023-01-29T12:17:36;4.50;53.10
17827;DHT22;9038;48.208;16.308;2023-01-29T12:19:43;4.30;52.80
17827;DHT22;9038;48.208;16.308;2023-01-29T12:21:50;4.20;53.20
17827;DHT22;9038;48.208;16.308;2023-01-29T12:23:58;4.10;53.70
17827;DHT22;9038;48.208;16.308;2023-01-29T12:26:05;4.10;54.40
17827;DHT22;9038;48.208;16.308;2023-01-29T12:28:30;4.10;54.60
17827;DHT22;9038;48.208;16.308;2023-01-29T12:30:39;4.00;54.20
17827;DHT22;9038;48.208;16.308;2023-01-29T12:32:47;4.00;54.40
17827;DHT22;9038;48.208;16.308;2023-01-29T12:34:54;3.90;54.70
17827;DHT22;9038;48.208;16.308;2023-01-29T12:37:03;3.90;55.00
17827;DHT22;9038;48.208;16.308;2023-01-29T12:39:08;3.90;55.00
17827;DHT22;9038;48.208;16.308;2023-01-29T12:41:28;3.90;55.30
17827;DHT22;9038;48.208;16.308;2023-01-29T12:43:37;3.80;55.10
17827;DHT22;9038;48.208;16.308;2023-01-29T12:45:41;3.80;55.50
17827;DHT22;9038;48.208;16.308;2023-01-29T12:47:47;3.80;55.50
17827;DHT22;9038;48.208;16.308;2023-01-29T12:49:52;3.90;55.80
17827;DHT22;9038;48.208;16.308;2023-01-29T12:51:59;4.00;56.50
17827;DHT22;9038;48.208;16.308;2023-01-29T12:54:06;4.10;56.20
17827;DHT22;9038;48.208;16.308;2023-01-29T12:56:12;4.30;55.50
17827;DHT22;9038;48.208;16.308;2023-01-29T12:58:21;4.40;54.80
17827;DHT22;9038;48.208;16.308;2023-01-29T13:00:27;4.40;54.50
17827;DHT22;9038;48.208;16.308;2023-01-29T13:02:32;4.50;54.60
17827;DHT22;9038;48.208;16.308;2023-01-29T13:04:39;4.50;54.60
17827;DHT22;9038;48.208;16.308;2023-01-29T13:06:45;4.50;54.20
17827;DHT22;9038;48.208;16.308;2023-01-29T13:08:50;4.60;54.40
17827;DHT22;9038;48.208;16.308;2023-01-29T13:10:55;4.60;54.70
17827;DHT22;9038;48.208;16.308;2023-01-29T13:13:03;4.60;54.70
17827;DHT22;9038;48.208;16.308;2023-01-29T13:15:16;4.80;54.80
17827;DHT22;9038;48.208;16.308;2023-01-29T13:17:25;4.90;54.00
17827;DHT22;9038;48.208;16.308;2023-01-29T13:19:33;5.00;53.90
17827;DHT22;9038;48.208;16.308;2023-01-29T13:21:39;5.10;53.90
17827;DHT22;9038;48.208;16.308;2023-01-29T13:23:45;5.20;54.10
17827;DHT22;9038;48.208;16.308;2023-01-29T13:25:50;5.20;53.70
17827;DHT22;9038;48.208;16.308;2023-01-29T13:27:52;5.10;53.40
17827;DHT22;9038;48.208;16.308;2023-01-29T13:29:56;5.10;53.60
17827;DHT22;9038;48.208;16.308;2023-01-29T13:32:01;5.10;53.90
17827;DHT22;9038;48.208;16.308;2023-01-29T13:34:10;5.20;53.70